sensor_id;sensor_type;location;lat;lon;timestamp;temperature;humidity
15036;DHT22;7615;48.574;13.474;2023-06-26T00:00:05;18.40;99.90
15036;DHT22;7615;48.574;13.474;2023-06-26T00:02:33;18.30;99.90
15036;DHT22;7615;48.574;13.474;2023-06-26T00:05:00;18.30;99.90
15036;DHT22;7615;48.574;13.474;2023-06-26T00:07:28;18.30;99.90
15036;DHT22;7615;48.574;13.474;2023-06-26T00:09:56;18.20;99.90
15036;DHT22;7615;48.574;13.474;2023-06-26T00:12:22;18.20;99.90
15036;DHT22;7615;48.574;13.474;2023-06-26T00:14:49;18.10;99.90
15036;DHT22;7615;48.574;13.474;2023-06-26T00:17:18;18.10;99.90
15036;DHT22;7615;48.574;13.474;2023-06-26T00:22:12;18.00;99.90
15036;DHT22;7615;48.574;13.474;2023-06-26T00:24:39;17.90;99.90
15036;DHT22;7615;48.574;13.474;2023-06-26T00:27:06;18.00;99.90
15036;DHT22;7615;48.574;13.474;2023-06-26T00:29:33;17.80;99.90
15036;DHT22;7615;48.574;13.474;2023-06-26T00:32:00;17.80;99.90
15036;DHT22;7615;48.574;13.474;2023-06-26T00:34:29;17.60;99.90
15036;DHT22;7615;48.574;13.474;2023-06-26T00:36:55;17.80;99.90
15036;DHT22;7615;48.574;13.474;2023-06-26T00:39:22;17.70;99.90
15036;DHT22;7615;48.574;13.474;2023-06-26T00:41:51;17.70;99.90
15036;DHT22;7615;48.574;13.474;2023-06-26T00:44:19;17.70;99.90
15036;DHT22;7615;48.574;13.474;2023-06-26T00:46:46;17.70;99.90
15036;DHT22;7615;48.574;13.474;2023-06-26T00:49:13;17.70;99.90
15036;DHT22;7615;48.574;13.474;2023-06-26T00:51:42;17.60;99.90
15036;DHT22;7615;48.574;13.474;2023-06-26T00:54:10;17.60;99.90
15036;DHT22;7615;48.574;13.474;2023-06-26T00:56:37;17.50;99.90
15036;DHT22;7615;48.574;13.474;2023-06-26T00:59:04;17.50;99.90
15036;DHT22;7615;48.574;13.474;2023-06-26T01:01:31;17.50;99.90
15036;DHT22;7615;48.574;13.474;2023-06-26T01:03:58;17.70;99.90
15036;DHT22;7615;48.574;13.474;2023-06-26T01:06:26;17.50;99.90
15036;DHT22;7615;48.574;13.474;2023-06-26T01:08:58;17.50;99.90
15036;DHT22;7615;48.574;13.474;2023-06-26T01:11:28;17.40;99.90
15036;DHT22;7615;48.574;13.474;2023-06-26T01:13:56;17.40;99.90
15036;DHT22;7615;48.574;13.474;2023-06-26T01:16:28;17.50;99.90
15036;DHT22;7615;48.574;13.474;2023-06-26T01:18:56;17.40;99.90
15036;DHT22;7615;48.574;13.474;2023-06-26T01:21:24;17.30;99.90
15036;DHT22;7615;48.574;13.474;2023-06-26T01:24:09;17.30;99.90
15036;DHT22;7615;48.574;13.474;2023-06-26T01:26:42;17.30;99.90
15036;DHT22;7615;48.574;13.474;2023-06-26T01:29:10;17.40;99.90
15036;DHT22;7615;48.574;13.474;2023-06-26T01:31:39;17.30;99.90
15036;DHT22;7615;48.574;13.474;2023-06-26T01:34:07;17.30;99.90
15036;DHT22;7615;48.574;13.474;2023-06-26T01:36:34;17.20;99.90
15036;DHT22;7615;48.574;13.474;2023-06-26T01:39:02;17.20;99.90
15036;DHT22;7615;48.574;13.474;2023-06-26T01:41:29;17.10;99.90
15036;DHT22;7615;48.574;13.474;2023-06-26T01:44:10;17.10;99.90
15036;DHT22;7615;48.574;13.474;2023-06-26T01:46:42;17.10;99.90
15036;DHT22;7615;48.574;13.474;2023-06-26T01:49:25;17.00;99.90
15036;DHT22;7615;48.574;13.474;2023-06-26T01:52:20;17.00;99.90
15036;DHT22;7615;48.574;13.474;2023-06-26T01:54:56;17.10;99.90
15036;DHT22;7615;48.574;13.474;2023-06-26T01:57:27;17.00;99.90
15036;DHT22;7615;48.574;13.474;2023-06-26T01:59:56;17.10;99.90
15036;DHT22;7615;48.574;13.474;2023-06-26T02:02:24;16.90;99.90
15036;DHT22;7615;48.574;13.474;2023-06-26T02:04:51;17.00;99.90
15036;DHT22;7615;48.574;13.474;2023-06-26T02:07:18;17.00;99.90
15036;DHT22;7615;48.574;13.474;2023-06-26T02:09:45;17.00;99.90
15036;DHT22;7615;48.574;13.474;2023-06-26T02:12:12;17.00;99.90
15036;DHT22;7615;48.574;13.474;2023-06-26T02:14:40;17.10;99.90
15036;DHT22;7615;48.574;13.474;2023-06-26T02:17:08;17.00;99.90
15036;DHT22;7615;48.574;13.474;2023-06-26T02:19:35;17.00;99.90
15036;DHT22;7615;48.574;13.474;2023-06-26T02:22:02;17.20;99.90
15036;DHT22;7615;48.574;13.474;2023-06-26T02:24:29;16.90;99.90
15036;DHT22;7615;48.574;13.474;2023-06-26T02:26:56;16.90;99.90
15036;DHT22;7615;48.574;13.474;2023-06-26T02:29:23;16.90;99.90
15036;DHT22;7615;48.574;13.474;2023-06-26T02:31:50;16.90;99.90
15036;DHT22;7615;48.574;13.474;2023-06-26T02:34:18;16.90;99.90
15036;DHT22;7615;48.574;13.474;2023-06-26T02:36:45;17.00;99.90
15036;DHT22;7615;48.574;13.474;2023-06-26T02:39:12;19.00;99.90
15036;DHT22;7615;48.574;13.474;2023-06-26T02:41:40;16.80;99.90
15036;DHT22;7615;48.574;13.474;2023-06-26T02:44:07;16.70;99.90
15036;DHT22;7615;48.574;13.474;2023-06-26T02:46:34;16.80;99.90
15036;DHT22;7615;48.574;13.474;2023-06-26T02:49:01;16.40;99.90
15036;DHT22;7615;48.574;13.474;2023-06-26T02:51:32;16.70;99.90
15036;DHT22;7615;48.574;13.474;2023-06-26T02:53:59;16.70;99.90
15036;DHT22;7615;48.574;13.474;2023-06-26T02:56:26;16.90;99.90
15036;DHT22;7615;48.574;13.474;2023-06-26T02:58:54;16.70;99.90
15036;DHT22;7615;48.574;13.474;2023-06-26T03:01:21;16.70;99.90
15036;DHT22;7615;48.574;13.474;2023-06-26T03:03:48;16.60;99.90
15036;DHT22;7615;48.574;13.474;2023-06-26T03:06:15;16.50;99.90
15036;DHT22;7615;48.574;13.474;2023-06-26T03:08:43;16.60;99.90
15036;DHT22;7615;48.574;13.474;2023-06-26T03:11:10;17.70;99.90
15036;DHT22;7615;48.574;13.474;2023-06-26T03:13:37;16.50;99.90
15036;DHT22;7615;48.574;13.474;2023-06-26T03:16:05;16.50;99.90
15036;DHT22;7615;48.574;13.474;2023-06-26T03:18:31;16.50;99.90
15036;DHT22;7615;48.574;13.474;2023-06-26T03:20:58;16.50;99.90
15036;DHT22;7615;48.574;13.474;2023-06-26T03:23:26;16.40;99.90
15036;DHT22;7615;48.574;13.474;2023-06-26T03:25:54;16.40;99.90
15036;DHT22;7615;48.574;13.474;2023-06-26T03:28:21;16.50;99.90
15036;DHT22;7615;48.574;13.474;2023-06-26T03:30:48;16.50;99.90
15036;DHT22;7615;48.574;13.474;2023-06-26T03:33:15;16.40;99.90
15036;DHT22;7615;48.574;13.474;2023-06-26T03:35:42;16.30;99.90
15036;DHT22;7615;48.574;13.474;2023-06-26T03:38:09;16.40;99.90
15036;DHT22;7615;48.574;13.474;2023-06-26T03:40:36;16.40;99.90
15036;DHT22;7615;48.574;13.474;2023-06-26T03:43:05;16.40;99.90
15036;DHT22;7615;48.574;13.474;2023-06-26T03:45:32;16.40;99.90
15036;DHT22;7615;48.574;13.474;2023-06-26T03:47:59;16.40;99.90
15036;DHT22;7615;48.574;13.474;2023-06-26T03:50:25;16.40;99.90
15036;DHT22;7615;48.574;13.474;2023-06-26T03:52:52;16.40;99.90
15036;DHT22;7615;48.574;13.474;2023-06-26T03:55:21;16.40;99.90
15036;DHT22;7615;48.574;13.474;2023-06-26T03:57:49;16.50;99.90
15036;DHT22;7615;48.574;13.474;2023-06-26T04:00:18;16.50;99.90
15036;DHT22;7615;48.574;13.474;2023-06-26T04:02:45;16.40;99.90
15036;DHT22;7615;48.574;13.474;2023-06-26T04:05:13;16.40;99.90
15036;DHT22;7615;48.574;13.474;2023-06-26T04:07:51;16.40;99.90
15036;DHT22;7615;48.574;13.474;2023-06-26T04:10:18;16.50;99.90
15036;DHT22;7615;48.574;13.474;2023-06-26T04:12:46;16.50;99.90
15036;DHT22;7615;48.574;13.474;2023-06-26T04:15:13;16.50;99.90
15036;DHT22;7615;48.574;13.474;2023-06-26T04:17:42;16.60;99.90
15036;DHT22;7615;48.574;13.474;2023-06-26T04:20:09;16.40;99.90
15036;DHT22;7615;48.574;13.474;2023-06-26T04:22:36;16.40;99.90
15036;DHT22;7615;48.574;13.474;2023-06-26T04:25:04;16.40;99.90
15036;DHT22;7615;48.574;13.474;2023-06-26T04:27:31;16.40;99.90
15036;DHT22;7615;48.574;13.474;2023-06-26T04:29:58;16.20;99.90
15036;DHT22;7615;48.574;13.474;2023-06-26T04:32:25;16.60;99.90
15036;DHT22;7615;48.574;13.474;2023-06-26T04:34:53;16.70;99.90
15036;DHT22;7615;48.574;13.474;2023-06-26T04:37:20;16.50;99.90
15036;DHT22;7615;48.574;13.474;2023-06-26T04:39:47;16.80;99.90
15036;DHT22;7615;48.574;13.474;2023-06-26T04:42:14;17.20;99.90
15036;DHT22;7615;48.574;13.474;2023-06-26T04:44:41;17.00;99.90
15036;DHT22;7615;48.574;13.474;2023-06-26T04:47:09;17.10;99.90
15036;DHT22;7615;48.574;13.474;2023-06-26T04:49:35;17.10;99.90
15036;DHT22;7615;48.574;13.474;2023-06-26T04:52:04;17.10;99.90
15036;DHT22;7615;48.574;13.474;2023-06-26T04:54:31;17.10;99.90
15036;DHT22;7615;48.574;13.474;2023-06-26T04:56:58;17.40;99.90
15036;DHT22;7615;48.574;13.474;2023-06-26T04:59:25;17.10;99.90
15036;DHT22;7615;48.574;13.474;2023-06-26T05:01:52;17.20;99.90
15036;DHT22;7615;48.574;13.474;2023-06-26T05:04:19;16.10;99.90
15036;DHT22;7615;48.574;13.474;2023-06-26T05:06:46;17.40;99.90
15036;DHT22;7615;48.574;13.474;2023-06-26T05:09:14;17.50;99.90
15036;DHT22;7615;48.574;13.474;2023-06-26T05:11:41;17.50;99.90
15036;DHT22;7615;48.574;13.474;2023-06-26T05:14:08;17.60;99.90
15036;DHT22;7615;48.574;13.474;2023-06-26T05:16:36;17.50;99.90
15036;DHT22;7615;48.574;13.474;2023-06-26T05:19:03;17.60;99.90
15036;DHT22;7615;48.574;13.474;2023-06-26T05:21:31;17.40;99.90
15036;DHT22;7615;48.574;13.474;2023-06-26T05:24:02;17.40;99.90
15036;DHT22;7615;48.574;13.474;2023-06-26T05:26:32;17.50;99.90
15036;DHT22;7615;48.574;13.474;2023-06-26T05:28:59;17.50;99.90
15036;DHT22;7615;48.574;13.474;2023-06-26T05:31:26;17.70;99.90
15036;DHT22;7615;48.574;13.474;2023-06-26T05:33:55;17.80;99.90
15036;DHT22;7615;48.574;13.474;2023-06-26T05:36:24;17.90;99.90
15036;DHT22;7615;48.574;13.474;2023-06-26T05:38:52;17.90;99.90
15036;DHT22;7615;48.574;13.474;2023-06-26T05:41:19;18.00;99.90
15036;DHT22;7615;48.574;13.474;2023-06-26T05:43:47;18.10;99.90
15036;DHT22;7615;48.574;13.474;2023-06-26T05:46:15;18.10;99.90
15036;DHT22;7615;48.574;13.474;2023-06-26T05:48:42;18.10;99.90
15036;DHT22;7615;48.574;13.474;2023-06-26T05:51:09;18.20;99.90
15036;DHT22;7615;48.574;13.474;2023-06-26T05:53:37;18.20;99.90
15036;DHT22;7615;48.574;13.474;2023-06-26T05:56:04;18.20;99.90
15036;DHT22;7615;48.574;13.474;2023-06-26T05:58:32;18.20;99.90
15036;DHT22;7615;48.574;13.474;2023-06-26T06:01:00;18.30;99.90
15036;DHT22;7615;48.574;13.474;2023-06-26T06:03:27;18.50;99.90
15036;DHT22;7615;48.574;13.474;2023-06-26T06:05:54;18.60;99.90
15036;DHT22;7615;48.574;13.474;2023-06-26T06:08:21;18.70;99.90
15036;DHT22;7615;48.574;13.474;2023-06-26T06:10:50;18.80;99.90
15036;DHT22;7615;48.574;13.474;2023-06-26T06:13:18;18.90;99.90
15036;DHT22;7615;48.574;13.474;2023-06-26T06:15:45;18.90;99.90
15036;DHT22;7615;48.574;13.474;2023-06-26T06:18:14;19.10;99.90
15036;DHT22;7615;48.574;13.474;2023-06-26T06:20:42;19.20;99.90
15036;DHT22;7615;48.574;13.474;2023-06-26T06:23:09;19.30;99.90
15036;DHT22;7615;48.574;13.474;2023-06-26T06:25:36;19.30;99.90
15036;DHT22;7615;48.574;13.474;2023-06-26T06:28:04;19.40;99.90
15036;DHT22;7615;48.574;13.474;2023-06-26T06:30:34;19.50;99.90
15036;DHT22;7615;48.574;13.474;2023-06-26T06:33:03;19.50;99.90
15036;DHT22;7615;48.574;13.474;2023-06-26T06:35:31;19.60;99.90
15036;DHT22;7615;48.574;13.474;2023-06-26T06:37:58;19.70;99.90
15036;DHT22;7615;48.574;13.474;2023-06-26T06:40:25;19.70;99.90
15036;DHT22;7615;48.574;13.474;2023-06-26T06:43:10;19.70;99.90
15036;DHT22;7615;48.574;13.474;2023-06-26T06:45:37;19.80;99.90
15036;DHT22;7615;48.574;13.474;2023-06-26T06:48:05;19.80;99.90
15036;DHT22;7615;48.574;13.474;2023-06-26T06:50:33;19.90;99.90
15036;DHT22;7615;48.574;13.474;2023-06-26T06:53:00;20.00;99.90
15036;DHT22;7615;48.574;13.474;2023-06-26T06:55:28;20.10;99.90
15036;DHT22;7615;48.574;13.474;2023-06-26T06:58:01;20.20;99.90
15036;DHT22;7615;48.574;13.474;2023-06-26T07:00:31;20.40;99.90
15036;DHT22;7615;48.574;13.474;2023-06-26T07:02:59;20.50;99.90
15036;DHT22;7615;48.574;13.474;2023-06-26T07:09:04;20.80;99.90
15036;DHT22;7615;48.574;13.474;2023-06-26T07:11:32;21.10;99.90
15036;DHT22;7615;48.574;13.474;2023-06-26T07:13:59;21.30;99.90
15036;DHT22;7615;48.574;13.474;2023-06-26T07:16:25;21.50;99.90
15036;DHT22;7615;48.574;13.474;2023-06-26T07:25:13;22.20;99.90
15036;DHT22;7615;48.574;13.474;2023-06-26T07:27:41;22.20;99.90
15036;DHT22;7615;48.574;13.474;2023-06-26T07:30:16;22.20;99.90
15036;DHT22;7615;48.574;13.474;2023-06-26T07:33:00;22.30;99.90
15036;DHT22;7615;48.574;13.474;2023-06-26T07:35:27;22.40;99.90
15036;DHT22;7615;48.574;13.474;2023-06-26T09:12:30;25.90;99.90
15036;DHT22;7615;48.574;13.474;2023-06-26T09:14:59;25.90;99.90
15036;DHT22;7615;48.574;13.474;2023-06-26T09:17:33;25.80;99.90
15036;DHT22;7615;48.574;13.474;2023-06-26T09:23:48;26.20;99.90
15036;DHT22;7615;48.574;13.474;2023-06-26T09:26:21;26.30;99.90
15036;DHT22;7615;48.574;13.474;2023-06-26T09:28:50;26.50;99.90
15036;DHT22;7615;48.574;13.474;2023-06-26T09:31:18;26.60;99.90
15036;DHT22;7615;48.574;13.474;2023-06-26T09:33:59;26.80;99.90
15036;DHT22;7615;48.574;13.474;2023-06-26T09:36:40;27.00;99.90
15036;DHT22;7615;48.574;13.474;2023-06-26T09:39:14;27.00;99.90
15036;DHT22;7615;48.574;13.474;2023-06-26T09:41:43;27.20;99.90
15036;DHT22;7615;48.574;13.474;2023-06-26T09:44:26;27.20;99.90
15036;DHT22;7615;48.574;13.474;2023-06-26T09:57:47;27.30;99.90
15036;DHT22;7615;48.574;13.474;2023-06-26T10:00:25;27.20;99.90
15036;DHT22;7615;48.574;13.474;2023-06-26T10:03:11;27.20;99.90
15036;DHT22;7615;48.574;13.474;2023-06-26T10:05:41;27.10;99.90
15036;DHT22;7615;48.574;13.474;2023-06-26T10:08:25;27.00;99.90
15036;DHT22;7615;48.574;13.474;2023-06-26T10:10:57;27.10;99.90
15036;DHT22;7615;48.574;13.474;2023-06-26T10:13:32;27.40;99.90
15036;DHT22;7615;48.574;13.474;2023-06-26T10:16:02;27.40;99.90
15036;DHT22;7615;48.574;13.474;2023-06-26T10:18:39;27.80;99.90
15036;DHT22;7615;48.574;13.474;2023-06-26T10:21:24;27.50;99.90
15036;DHT22;7615;48.574;13.474;2023-06-26T10:23:57;27.30;99.90
15036;DHT22;7615;48.574;13.474;2023-06-26T10:26:27;27.50;99.90
15036;DHT22;7615;48.574;13.474;2023-06-26T10:29:06;27.60;99.90
15036;DHT22;7615;48.574;13.474;2023-06-26T10:31:36;27.60;99.90
15036;DHT22;7615;48.574;13.474;2023-06-26T10:34:04;27.50;99.90
15036;DHT22;7615;48.574;13.474;2023-06-26T10:36:35;27.40;99.90
15036;DHT22;7615;48.574;13.474;2023-06-26T10:39:27;27.40;99.90
15036;DHT22;7615;48.574;13.474;2023-06-26T10:42:12;27.40;99.90
15036;DHT22;7615;48.574;13.474;2023-06-26T10:44:52;27.50;99.90
15036;DHT22;7615;48.574;13.474;2023-06-26T10:47:39;27.70;99.90
15036;DHT22;7615;48.574;13.474;2023-06-26T10:53:14;27.90;99.90
15036;DHT22;7615;48.574;13.474;2023-06-26T10:55:49;27.80;99.90
15036;DHT22;7615;48.574;13.474;2023-06-26T10:58:45;28.00;99.90
15036;DHT22;7615;48.574;13.474;2023-06-26T11:01:21;28.20;99.90
15036;DHT22;7615;48.574;13.474;2023-06-26T11:04:00;27.90;99.90
15036;DHT22;7615;48.574;13.474;2023-06-26T11:06:30;27.40;99.90
15036;DHT22;7615;48.574;13.474;2023-06-26T11:09:06;27.90;99.90
15036;DHT22;7615;48.574;13.474;2023-06-26T11:12:03;27.90;99.90
15036;DHT22;7615;48.574;13.474;2023-06-26T11:14:35;27.90;99.90
15036;DHT22;7615;48.574;13.474;2023-06-26T11:17:12;27.90;99.90
15036;DHT22;7615;48.574;13.474;2023-06-26T11:22:12;28.10;99.90
15036;DHT22;7615;48.574;13.474;2023-06-26T11:24:42;28.20;99.90
15036;DHT22;7615;48.574;13.474;2023-06-26T11:27:11;28.20;99.90
15036;DHT22;7615;48.574;13.474;2023-06-26T11:29:47;28.20;99.90
15036;DHT22;7615;48.574;13.474;2023-06-26T11:32:18;28.20;99.90
15036;DHT22;7615;48.574;13.474;2023-06-26T11:34:48;28.20;99.90
15036;DHT22;7615;48.574;13.474;2023-06-26T11:37:20;28.30;99.90
15036;DHT22;7615;48.574;13.474;2023-06-26T11:39:51;28.30;99.90
15036;DHT22;7615;48.574;13.474;2023-06-26T11:42:24;28.40;99.90
15036;DHT22;7615;48.574;13.474;2023-06-26T11:44:55;28.50;99.60
15036;DHT22;7615;48.574;13.474;2023-06-26T11:47:25;28.50;99.90
15036;DHT22;7615;48.574;13.474;2023-06-26T11:49:55;28.40;99.90
15036;DHT22;7615;48.574;13.474;2023-06-26T11:52:24;28.20;99.30
15036;DHT22;7615;48.574;13.474;2023-06-26T11:54:51;27.90;98.90
15036;DHT22;7615;48.574;13.474;2023-06-26T11:57:20;27.80;99.30
15036;DHT22;7615;48.574;13.474;2023-06-26T11:59:51;27.90;99.30
15036;DHT22;7615;48.574;13.474;2023-06-26T12:02:20;28.20;98.80
15036;DHT22;7615;48.574;13.474;2023-06-26T12:05:06;28.40;98.40
15036;DHT22;7615;48.574;13.474;2023-06-26T12:07:37;28.60;97.90
15036;DHT22;7615;48.574;13.474;2023-06-26T12:10:08;28.80;97.50
15036;DHT22;7615;48.574;13.474;2023-06-26T12:12:40;28.80;97.80
15036;DHT22;7615;48.574;13.474;2023-06-26T12:15:15;28.70;98.20
15036;DHT22;7615;48.574;13.474;2023-06-26T12:18:00;28.60;97.60
15036;DHT22;7615;48.574;13.474;2023-06-26T12:20:54;28.70;98.00
15036;DHT22;7615;48.574;13.474;2023-06-26T12:26:44;29.00;97.40
15036;DHT22;7615;48.574;13.474;2023-06-26T12:29:20;29.20;97.40
15036;DHT22;7615;48.574;13.474;2023-06-26T12:31:50;29.60;98.70
15036;DHT22;7615;48.574;13.474;2023-06-26T12:34:19;29.40;97.80
15036;DHT22;7615;48.574;13.474;2023-06-26T12:36:52;29.70;96.20
15036;DHT22;7615;48.574;13.474;2023-06-26T12:39:21;29.70;96.30
15036;DHT22;7615;48.574;13.474;2023-06-26T12:41:52;29.60;96.00
15036;DHT22;7615;48.574;13.474;2023-06-26T12:44:21;29.40;96.30
15036;DHT22;7615;48.574;13.474;2023-06-26T12:46:54;29.40;96.90
15036;DHT22;7615;48.574;13.474;2023-06-26T12:49:33;29.70;96.50
15036;DHT22;7615;48.574;13.474;2023-06-26T12:52:03;30.10;96.00
15036;DHT22;7615;48.574;13.474;2023-06-26T12:57:02;30.50;95.20
15036;DHT22;7615;48.574;13.474;2023-06-26T12:59:30;30.50;95.50
15036;DHT22;7615;48.574;13.474;2023-06-26T13:01:59;30.40;94.80
15036;DHT22;7615;48.574;13.474;2023-06-26T13:04:27;30.00;95.30
15036;DHT22;7615;48.574;13.474;2023-06-26T13:06:55;29.80;95.90
15036;DHT22;7615;48.574;13.474;2023-06-26T13:09:32;30.10;95.60
15036;DHT22;7615;48.574;13.474;2023-06-26T13:12:01;30.40;94.50
15036;DHT22;7615;48.574;13.474;2023-06-26T13:17:05;30.80;93.60
15036;DHT22;7615;48.574;13.474;2023-06-26T13:19:34;30.70;94.00
15036;DHT22;7615;48.574;13.474;2023-06-26T13:22:03;30.80;93.90
15036;DHT22;7615;48.574;13.474;2023-06-26T13:24:31;30.70;93.40
15036;DHT22;7615;48.574;13.474;2023-06-26T13:27:01;30.50;93.30
15036;DHT22;7615;48.574;13.474;2023-06-26T13:29:28;30.50;92.80
15036;DHT22;7615;48.574;13.474;2023-06-26T13:31:56;30.60;93.70
15036;DHT22;7615;48.574;13.474;2023-06-26T13:34:24;30.80;93.00
15036;DHT22;7615;48.574;13.474;2023-06-26T13:36:53;31.20;92.40
15036;DHT22;7615;48.574;13.474;2023-06-26T13:39:20;31.30;92.60
15036;DHT22;7615;48.574;13.474;2023-06-26T13:42:20;31.30;92.80
15036;DHT22;7615;48.574;13.474;2023-06-26T13:44:49;31.40;91.80
15036;DHT22;7615;48.574;13.474;2023-06-26T13:47:16;31.60;92.00
15036;DHT22;7615;48.574;13.474;2023-06-26T13:49:43;31.40;91.80
15036;DHT22;7615;48.574;13.474;2023-06-26T13:52:10;31.40;91.50
15036;DHT22;7615;48.574;13.474;2023-06-26T13:54:40;31.30;92.20
15036;DHT22;7615;48.574;13.474;2023-06-26T13:57:07;30.90;91.00
15036;DHT22;7615;48.574;13.474;2023-06-26T13:59:37;30.90;91.40
15036;DHT22;7615;48.574;13.474;2023-06-26T14:02:05;31.20;91.80
15036;DHT22;7615;48.574;13.474;2023-06-26T14:04:32;31.20;91.10
15036;DHT22;7615;48.574;13.474;2023-06-26T14:06:59;31.20;90.60
15036;DHT22;7615;48.574;13.474;2023-06-26T14:09:26;31.40;90.50
15036;DHT22;7615;48.574;13.474;2023-06-26T14:11:53;31.60;91.80
15036;DHT22;7615;48.574;13.474;2023-06-26T14:14:21;31.50;90.20
15036;DHT22;7615;48.574;13.474;2023-06-26T14:16:49;31.60;90.60
15036;DHT22;7615;48.574;13.474;2023-06-26T14:19:16;32.00;90.70
15036;DHT22;7615;48.574;13.474;2023-06-26T14:21:44;32.60;90.30
15036;DHT22;7615;48.574;13.474;2023-06-26T14:24:11;32.60;89.20
15036;DHT22;7615;48.574;13.474;2023-06-26T14:26:38;32.40;89.30
15036;DHT22;7615;48.574;13.474;2023-06-26T14:29:05;32.40;90.60
15036;DHT22;7615;48.574;13.474;2023-06-26T14:31:32;31.90;90.10
15036;DHT22;7615;48.574;13.474;2023-06-26T14:34:00;31.70;90.00
15036;DHT22;7615;48.574;13.474;2023-06-26T14:36:28;31.20;89.40
15036;DHT22;7615;48.574;13.474;2023-06-26T14:38:57;31.00;90.90
15036;DHT22;7615;48.574;13.474;2023-06-26T14:41:25;30.60;90.50
15036;DHT22;7615;48.574;13.474;2023-06-26T14:43:52;30.50;90.20
15036;DHT22;7615;48.574;13.474;2023-06-26T14:46:19;30.80;90.30
15036;DHT22;7615;48.574;13.474;2023-06-26T14:48:46;30.80;90.50
15036;DHT22;7615;48.574;13.474;2023-06-26T14:51:16;30.70;90.80
15036;DHT22;7615;48.574;13.474;2023-06-26T14:53:43;30.70;90.50
15036;DHT22;7615;48.574;13.474;2023-06-26T14:56:09;30.70;90.60
15036;DHT22;7615;48.574;13.474;2023-06-26T14:58:38;30.80;91.40
15036;DHT22;7615;48.574;13.474;2023-06-26T15:03:32;30.50;90.60
15036;DHT22;7615;48.574;13.474;2023-06-26T15:06:00;30.70;90.60
15036;DHT22;7615;48.574;13.474;2023-06-26T15:08:28;30.90;91.10
15036;DHT22;7615;48.574;13.474;2023-06-26T15:10:55;31.00;90.80
15036;DHT22;7615;48.574;13.474;2023-06-26T15:13:24;31.00;91.50
15036;DHT22;7615;48.574;13.474;2023-06-26T15:15:50;31.00;90.50
15036;DHT22;7615;48.574;13.474;2023-06-26T15:18:17;31.10;90.80
15036;DHT22;7615;48.574;13.474;2023-06-26T15:20:44;31.30;90.10
15036;DHT22;7615;48.574;13.474;2023-06-26T15:23:11;31.30;90.00
15036;DHT22;7615;48.574;13.474;2023-06-26T15:25:40;31.30;90.80
15036;DHT22;7615;48.574;13.474;2023-06-26T15:28:07;31.30;90.80
15036;DHT22;7615;48.574;13.474;2023-06-26T15:30:34;31.40;89.90
15036;DHT22;7615;48.574;13.474;2023-06-26T15:33:01;31.40;89.70
15036;DHT22;7615;48.574;13.474;2023-06-26T15:35:28;31.30;89.90
15036;DHT22;7615;48.574;13.474;2023-06-26T15:37:55;31.20;88.00
15036;DHT22;7615;48.574;13.474;2023-06-26T15:40:22;31.00;88.80
15036;DHT22;7615;48.574;13.474;2023-06-26T15:42:51;30.90;88.90
15036;DHT22;7615;48.574;13.474;2023-06-26T15:45:20;30.80;89.40
15036;DHT22;7615;48.574;13.474;2023-06-26T15:47:49;30.80;89.20
15036;DHT22;7615;48.574;13.474;2023-06-26T15:50:17;30.80;90.20
15036;DHT22;7615;48.574;13.474;2023-06-26T15:52:45;30.60;90.60
15036;DHT22;7615;48.574;13.474;2023-06-26T15:55:12;30.70;90.70
15036;DHT22;7615;48.574;13.474;2023-06-26T15:57:39;30.70;90.10
15036;DHT22;7615;48.574;13.474;2023-06-26T16:00:08;30.70;88.90
15036;DHT22;7615;48.574;13.474;2023-06-26T16:02:36;30.80;90.50
15036;DHT22;7615;48.574;13.474;2023-06-26T16:05:04;30.70;90.10
15036;DHT22;7615;48.574;13.474;2023-06-26T16:07:31;30.70;90.00
15036;DHT22;7615;48.574;13.474;2023-06-26T16:09:58;30.80;90.70
15036;DHT22;7615;48.574;13.474;2023-06-26T16:12:25;30.80;90.40
15036;DHT22;7615;48.574;13.474;2023-06-26T16:14:52;30.80;90.10
15036;DHT22;7615;48.574;13.474;2023-06-26T16:17:20;30.80;90.40
15036;DHT22;7615;48.574;13.474;2023-06-26T16:19:48;30.80;89.30
15036;DHT22;7615;48.574;13.474;2023-06-26T16:22:15;30.60;90.10
15036;DHT22;7615;48.574;13.474;2023-06-26T16:24:42;30.60;89.80
15036;DHT22;7615;48.574;13.474;2023-06-26T16:27:09;30.60;88.90
15036;DHT22;7615;48.574;13.474;2023-06-26T16:29:36;30.70;89.40
15036;DHT22;7615;48.574;13.474;2023-06-26T16:32:04;30.60;88.60
15036;DHT22;7615;48.574;13.474;2023-06-26T16:37:03;30.60;89.40
15036;DHT22;7615;48.574;13.474;2023-06-26T16:44:28;30.60;90.10
15036;DHT22;7615;48.574;13.474;2023-06-26T16:46:56;30.50;89.90
15036;DHT22;7615;48.574;13.474;2023-06-26T16:49:24;30.40;90.30
15036;DHT22;7615;48.574;13.474;2023-06-26T16:54:22;30.40;91.00
15036;DHT22;7615;48.574;13.474;2023-06-26T16:56:50;30.20;90.10
15036;DHT22;7615;48.574;13.474;2023-06-26T16:59:17;30.20;91.10
15036;DHT22;7615;48.574;13.474;2023-06-26T17:01:45;30.20;91.00
15036;DHT22;7615;48.574;13.474;2023-06-26T17:04:11;30.10;92.00
15036;DHT22;7615;48.574;13.474;2023-06-26T17:06:38;30.10;90.90
15036;DHT22;7615;48.574;13.474;2023-06-26T17:09:07;30.00;91.00
15036;DHT22;7615;48.574;13.474;2023-06-26T17:11:34;30.00;90.60
15036;DHT22;7615;48.574;13.474;2023-06-26T17:14:01;30.00;90.40
15036;DHT22;7615;48.574;13.474;2023-06-26T17:16:28;30.00;91.20
15036;DHT22;7615;48.574;13.474;2023-06-26T17:18:55;30.00;91.80
15036;DHT22;7615;48.574;13.474;2023-06-26T17:21:22;29.90;91.40
15036;DHT22;7615;48.574;13.474;2023-06-26T17:23:49;29.80;91.80
15036;DHT22;7615;48.574;13.474;2023-06-26T17:26:18;29.80;92.10
15036;DHT22;7615;48.574;13.474;2023-06-26T17:28:46;29.80;92.20
15036;DHT22;7615;48.574;13.474;2023-06-26T17:31:13;29.60;91.80
15036;DHT22;7615;48.574;13.474;2023-06-26T17:33:40;29.70;92.30
15036;DHT22;7615;48.574;13.474;2023-06-26T17:36:07;29.60;92.80
15036;DHT22;7615;48.574;13.474;2023-06-26T17:38:34;29.50;92.40
15036;DHT22;7615;48.574;13.474;2023-06-26T17:41:02;29.40;92.90
15036;DHT22;7615;48.574;13.474;2023-06-26T17:43:30;29.40;92.90
15036;DHT22;7615;48.574;13.474;2023-06-26T17:45:57;29.40;92.60
15036;DHT22;7615;48.574;13.474;2023-06-26T17:48:25;29.40;92.80
15036;DHT22;7615;48.574;13.474;2023-06-26T17:50:52;29.40;92.90
15036;DHT22;7615;48.574;13.474;2023-06-26T17:53:19;29.30;93.20
15036;DHT22;7615;48.574;13.474;2023-06-26T17:55:46;29.20;93.00
15036;DHT22;7615;48.574;13.474;2023-06-26T17:58:13;29.20;94.20
15036;DHT22;7615;48.574;13.474;2023-06-26T18:00:42;29.10;94.30
15036;DHT22;7615;48.574;13.474;2023-06-26T18:03:09;29.00;94.90
15036;DHT22;7615;48.574;13.474;2023-06-26T18:05:36;28.90;95.80
15036;DHT22;7615;48.574;13.474;2023-06-26T18:12:16;28.60;96.50
15036;DHT22;7615;48.574;13.474;2023-06-26T18:14:20;28.30;98.00